Time;durP1;ratioP1;P1;durP2;ratioP2;P2;SDS_P1;SDS_P2;PMS_P1;PMS_P2;Temp;Humidity;BMP_temperature;BMP_pressure;BME280_temperature;BME280_humidity;BME280_pressure;Samples;Min_cycle;Max_cycle;Signal;HPM_P1;HPM_P2
2022/07/17 00:01:22;;;;;;;0.90;0.90;;;;;;;31.15;25.09;99440.12;1895539;75;28060;-54
2022/07/17 00:04:10;;;;;;;1.10;1.10;;;;;;;31.16;25.09;99437.59;1909290;74;28057;-53
2022/07/17 00:06:59;;;;;;;0.90;0.90;;;;;;;31.12;25.10;99444.30;1898240;74;28232;-52
2022/07/17 00:09:47;;;;;;;1.05;1.05;;;;;;;31.10;25.12;99438.77;1895511;74;28096;-54
2022/07/17 00:12:36;;;;;;;1.10;1.10;;;;;;;31.09;25.08;99446.81;1895644;75;28078;-55
2022/07/17 00:15:25;;;;;;;1.00;1.00;;;;;;;31.09;25.12;99442.66;1895232;73;28053;-51
2022/07/17 00:18:13;;;;;;;0.95;0.90;;;;;;;31.07;25.07;99454.06;1913299;74;28107;-55
2022/07/17 00:21:02;;;;;;;1.32;1.10;;;;;;;31.06;25.09;99453.81;1914962;74;28108;-51
2022/07/17 00:23:50;;;;;;;1.55;1.25;;;;;;;31.04;25.14;99456.60;1895900;74;28103;-52
2022/07/17 00:26:38;;;;;;;1.15;1.10;;;;;;;31.04;25.17;99462.95;1893015;75;28107;-50
2022/07/17 00:29:27;;;;;;;1.15;1.15;;;;;;;31.01;25.18;99458.02;1896510;75;28510;-51
2022/07/17 00:32:16;;;;;;;1.05;1.00;;;;;;;31.02;25.23;99462.42;1895752;75;28103;-51
2022/07/17 00:35:07;;;;;;;1.20;1.20;;;;;;;31.04;25.23;99458.80;1898249;75;28494;-52
2022/07/17 00:37:55;;;;;;;1.30;1.20;;;;;;;31.02;25.28;99458.81;1896637;75;28202;-50
2022/07/17 00:40:44;;;;;;;1.30;1.20;;;;;;;31.01;25.40;99460.78;1893513;74;28138;-52
2022/07/17 00:43:33;;;;;;;1.30;1.20;;;;;;;31.04;25.48;99460.77;1893430;74;28104;-56
2022/07/17 00:46:22;;;;;;;1.00;1.00;;;;;;;31.01;25.48;99459.95;1892886;74;28170;-51
2022/07/17 00:49:10;;;;;;;1.00;1.00;;;;;;;31.00;25.53;99461.89;1903581;73;28181;-49
2022/07/17 00:51:59;;;;;;;1.70;1.12;;;;;;;30.99;25.57;99467.74;1895289;74;28153;-52
2022/07/17 00:54:48;;;;;;;2.00;1.20;;;;;;;31.01;25.73;99462.73;1910812;74;28116;-53
2022/07/17 00:57:39;;;;;;;1.23;1.13;;;;;;;31.02;25.77;99466.58;1897545;74;28092;-52
2022/07/17 01:00:28;;;;;;;1.00;1.00;;;;;;;30.99;25.87;99461.64;1893730;75;28282;-52
2022/07/17 01:03:18;;;;;;;1.10;1.00;;;;;;;31.03;25.84;99465.48;1912835;74;28102;-52
2022/07/17 01:06:07;;;;;;;1.10;1.10;;;;;;;31.05;25.78;99465.17;1898430;74;28120;-52
2022/07/17 01:08:56;;;;;;;1.25;1.15;;;;;;;31.03;25.83;99464.09;1923752;74;28130;-50
2022/07/17 01:11:45;;;;;;;1.30;1.20;;;;;;;31.05;25.88;99470.17;1897583;74;28017;-50
2022/07/17 01:14:34;;;;;;;1.40;1.30;;;;;;;31.05;25.84;99471.56;1894981;74;28199;-51
2022/07/17 01:17:22;;;;;;;1.27;1.17;;;;;;;31.03;25.86;99467.42;1908070;74;28133;-49
2022/07/17 01:20:12;;;;;;;1.12;1.02;;;;;;;31.04;25.89;99473.25;1895119;74;28167;-50
2022/07/17 01:23:00;;;;;;;1.25;1.10;;;;;;;31.02;25.92;99466.58;1896066;74;28185;-50
2022/07/17 01:25:49;;;;;;;1.00;1.00;;;;;;;31.00;25.93;99466.05;1907775;74;28137;-52
2022/07/17 01:28:37;;;;;;;1.10;1.10;;;;;;;31.01;25.87;99469.66;1897582;75;28013;-51
2022/07/17 01:31:26;;;;;;;1.10;1.10;;;;;;;31.03;25.92;99465.48;1897905;75;28121;-53
2022/07/17 01:34:14;;;;;;;2.37;1.12;;;;;;;31.02;25.94;99465.20;1913563;74;28005;-48
2022/07/17 01:37:03;;;;;;;0.90;0.90;;;;;;;31.02;25.96;99465.75;1892683;75;28153;-53
2022/07/17 01:39:54;;;;;;;1.27;1.20;;;;;;;31.05;26.04;99471.56;1925662;74;28059;-50
2022/07/17 01:42:49;;;;;;;1.10;1.10;;;;;;;31.04;25.94;99471.86;1897196;74;28122;-50
2022/07/17 01:45:37;;;;;;;1.00;1.00;;;;;;;31.04;25.88;99474.05;1896069;75;36123;-50
2022/07/17 01:48:30;;;;;;;1.17;1.10;;;;;;;31.00;25.92;99467.99;1894405;75;28259;-55
2022/07/17 01:51:18;;;;;;;1.32;1.22;;;;;;;31.01;25.90;99462.17;1894604;73;28104;-53
2022/07/17 01:54:07;;;;;;;1.10;1.10;;;;;;;31.01;25.96;99467.72;1876082;75;28108;-51
2022/07/17 01:56:55;;;;;;;1.00;1.00;;;;;;;31.01;25.95;99475.21;1875652;75;28108;-49
2022/07/17 01:59:44;;;;;;;1.10;1.10;;;;;;;31.03;25.98;99480.74;1887148;75;28072;-53
2022/07/17 02:02:32;;;;;;;1.32;1.22;;;;;;;31.02;25.93;99473.52;1903951;75;28054;-51
2022/07/17 02:05:21;;;;;;;1.13;1.13;;;;;;;31.04;25.92;99476.02;1881480;75;28139;-51
2022/07/17 02:08:09;;;;;;;1.30;1.20;;;;;;;31.04;25.93;99482.97;1884080;75;28023;-51
2022/07/17 02:10:57;;;;;;;1.10;1.10;;;;;;;31.03;25.92;99478.52;1888199;75;28082;-53
2022/07/17 02:13:45;;;;;;;1.30;1.20;;;;;;;31.02;25.94;99473.52;1873694;75;28030;-48
2022/07/17 02:16:34;;;;;;;1.20;1.10;;;;;;;31.05;25.98;99472.11;1874502;75;28185;-52
2022/07/17 02:19:22;;;;;;;1.35;1.10;;;;;;;31.06;26.10;99471.02;1902148;75;28043;-53
2022/07/17 02:22:11;;;;;;;1.40;1.10;;;;;;;31.08;26.13;99468.77;1871965;76;28104;-50
2022/07/17 02:24:59;;;;;;;1.10;1.10;;;;;;;31.08;26.11;99466.83;1882008;75;27965;-51
2022/07/17 02:27:48;;;;;;;1.60;1.20;;;;;;;31.07;26.10;99462.38;1880640;75;28222;-52
2022/07/17 02:30:37;;;;;;;0.95;0.95;;;;;;;31.08;26.00;99465.44;1872931;75;28163;-50
2022/07/17 02:33:25;;;;;;;1.15;1.15;;;;;;;31.10;26.10;99461.80;1884946;75;27977;-51
2022/07/17 02:36:14;;;;;;;2.05;1.30;;;;;;;31.11;26.08;99462.64;1903274;75;27997;-48
2022/07/17 02:39:03;;;;;;;1.15;1.05;;;;;;;31.08;26.08;99470.98;1882040;75;28040;-52
2022/07/17 02:41:51;;;;;;;1.30;1.20;;;;;;;31.10;26.10;99472.08;1890516;75;28548;-51
2022/07/17 02:44:40;;;;;;;1.15;1.15;;;;;;;31.10;26.27;99473.46;1884975;75;28570;-52
2022/07/17 02:47:33;;;;;;;1.10;1.10;;;;;;;31.11;26.25;99472.36;1897974;75;28038;-50
2022/07/17 02:50:22;;;;;;;1.32;1.22;;;;;;;31.08;26.25;99467.37;1893798;73;27958;-50
2022/07/17 02:53:11;;;;;;;1.10;1.10;;;;;;;31.07;26.27;99473.48;1938123;73;28102;-51
2022/07/17 02:55:59;;;;;;;1.50;1.10;;;;;;;31.07;26.35;99475.42;1904156;74;28025;-50
2022/07/17 02:58:47;;;;;;;1.20;1.20;;;;;;;31.09;26.30;99467.63;1902901;74;28042;-50
2022/07/17 03:01:36;;;;;;;1.40;1.30;;;;;;;31.14;26.21;99473.97;1907570;74;28111;-49
2022/07/17 03:04:24;;;;;;;1.12;1.10;;;;;;;31.18;26.19;99475.03;1895782;75;28180;-52
2022/07/17 03:07:13;;;;;;;1.17;1.17;;;;;;;31.18;26.21;99475.03;1894210;75;28143;-52
2022/07/17 03:10:01;;;;;;;1.05;1.05;;;;;;;31.15;26.30;99476.20;1894312;75;28089;-52
2022/07/17 03:12:50;;;;;;;1.30;1.20;;;;;;;31.17;26.36;99473.95;1894419;75;28163;-48
2022/07/17 03:15:38;;;;;;;1.20;1.20;;;;;;;31.14;26.45;99475.36;1893987;75;28019;-51
2022/07/17 03:18:27;;;;;;;1.42;1.22;;;;;;;31.16;26.45;99476.45;1894021;75;28011;-48
2022/07/17 03:21:15;;;;;;;1.33;1.20;;;;;;;31.19;26.43;99475.31;1896410;74;28169;-49
2022/07/17 03:24:07;;;;;;;1.00;1.00;;;;;;;31.23;26.42;99469.44;1906920;74;28215;-53
2022/07/17 03:26:55;;;;;;;1.10;1.10;;;;;;;31.19;26.45;99479.48;1928823;74;28101;-52
2022/07/17 03:29:44;;;;;;;1.23;1.23;;;;;;;31.17;26.54;99473.95;1895541;74;28099;-52
2022/07/17 03:32:33;;;;;;;1.35;1.25;;;;;;;31.17;26.57;99478.95;1896309;75;28067;-53
2022/07/17 03:35:21;;;;;;;1.02;1.02;;;;;;;31.15;26.62;99479.80;1895852;75;28120;-52
2022/07/17 03:38:09;;;;;;;1.20;1.20;;;;;;;31.17;26.69;99480.89;1899554;74;28274;-49
2022/07/17 03:40:58;;;;;;;1.40;1.30;;;;;;;31.16;26.77;99478.66;1903091;74;28125;-48
2022/07/17 03:43:47;;;;;;;1.12;1.12;;;;;;;31.16;26.77;99484.77;1903068;74;28202;-49
2022/07/17 03:46:35;;;;;;;1.10;1.10;;;;;;;31.16;26.84;99482.83;1894999;75;28056;-50
2022/07/17 03:49:24;;;;;;;1.10;1.10;;;;;;;31.14;26.87;99485.07;1892472;75;28197;-51
2022/07/17 03:52:12;;;;;;;1.10;1.10;;;;;;;31.16;26.91;99486.99;1902005;73;28120;-50
2022/07/17 03:55:01;;;;;;;1.17;1.17;;;;;;;31.15;26.96;99488.68;1906703;74;28122;-50
2022/07/17 03:57:49;;;;;;;1.10;1.10;;;;;;;31.12;27.02;99490.09;1942239;73;28094;-49
2022/07/17 04:00:38;;;;;;;1.20;1.10;;;;;;;31.13;27.05;99495.92;1910634;73;28024;-50
2022/07/17 04:03:26;;;;;;;1.20;1.20;;;;;;;31.12;27.12;99496.19;1908351;74;28144;-48
2022/07/17 04:06:14;;;;;;;1.20;1.10;;;;;;;31.12;27.15;99498.42;1928006;73;28096;-51
2022/07/17 04:09:05;;;;;;;1.70;1.30;;;;;;;31.12;27.18;99499.80;1914227;73;28165;-50
2022/07/17 04:11:53;;;;;;;1.07;1.07;;;;;;;31.14;27.22;99496.17;1911068;73;28149;-49
2022/07/17 04:14:42;;;;;;;1.30;1.20;;;;;;;31.17;27.20;99505.87;1908532;74;28137;-54
2022/07/17 04:17:31;;;;;;;1.07;1.07;;;;;;;31.20;27.18;99507.48;1908480;74;28202;-52
2022/07/17 04:20:19;;;;;;;1.20;1.20;;;;;;;31.20;27.21;99503.91;1920579;73;35896;-51
2022/07/17 04:23:07;;;;;;;1.20;1.20;;;;;;;31.18;27.24;99507.53;1913881;73;28146;-52
2022/07/17 04:25:56;;;;;;;1.30;1.12;;;;;;;31.14;27.29;99508.66;1908460;74;28233;-53
2022/07/17 04:28:46;;;;;;;1.20;1.10;;;;;;;31.14;27.29;99519.77;1942522;73;28118;-50
2022/07/17 04:31:34;;;;;;;1.00;1.00;;;;;;;31.13;27.31;99513.96;1919091;73;28067;-48
2022/07/17 04:34:23;;;;;;;1.00;1.00;;;;;;;31.13;27.36;99516.73;1915457;73;28101;-49
2022/07/17 04:37:11;;;;;;;1.30;1.20;;;;;;;31.14;27.40;99517.54;1908456;74;28153;-47
2022/07/17 04:40:00;;;;;;;1.32;1.22;;;;;;;31.15;27.42;99517.82;1938860;73;28040;-49
2022/07/17 04:42:48;;;;;;;1.20;1.20;;;;;;;31.16;27.38;99513.91;1910404;73;28111;-52
2022/07/17 04:45:36;;;;;;;1.20;1.10;;;;;;;31.18;27.36;99517.25;1908487;74;28050;-51
2022/07/17 04:48:25;;;;;;;1.10;1.10;;;;;;;31.18;27.39;99521.41;1908389;74;28059;-51
2022/07/17 04:51:13;;;;;;;1.30;1.30;;;;;;;31.19;27.40;99521.66;1911306;73;28133;-50
2022/07/17 04:54:02;;;;;;;1.30;1.30;;;;;;;31.18;27.42;99519.44;1909068;73;28598;-50
2022/07/17 04:56:50;;;;;;;1.00;1.00;;;;;;;31.15;27.48;99520.05;1908200;74;28182;-50
2022/07/17 04:59:39;;;;;;;1.27;1.27;;;;;;;31.12;27.50;99522.00;1908285;74;28138;-52
2022/07/17 05:02:27;;;;;;;1.22;1.22;;;;;;;31.12;27.57;99526.16;1908416;74;28219;-50
2022/07/17 05:05:16;;;;;;;1.12;1.10;;;;;;;31.14;27.54;99526.70;1931035;73;28126;-52
2022/07/17 05:08:04;;;;;;;1.00;1.00;;;;;;;31.13;27.57;99530.61;1908534;74;28128;-51
2022/07/17 05:10:53;;;;;;;1.20;1.20;;;;;;;31.11;27.59;99527.27;1924523;73;28104;-52
2022/07/17 05:13:41;;;;;;;1.03;1.00;;;;;;;31.13;27.62;99525.06;1909010;73;28009;-53
2022/07/17 05:16:29;;;;;;;1.10;1.10;;;;;;;31.19;27.59;99532.22;1930584;73;28003;-52
2022/07/17 05:19:17;;;;;;;1.15;1.15;;;;;;;31.16;27.67;99531.95;1908220;74;28195;-49
2022/07/17 05:22:06;;;;;;;1.10;1.10;;;;;;;31.16;27.72;99527.23;1922877;73;31978;-47
2022/07/17 05:24:55;;;;;;;1.30;1.30;;;;;;;31.20;27.68;99530.27;1907739;74;28234;-50
2022/07/17 05:27:43;;;;;;;1.35;1.25;;;;;;;31.19;27.74;99534.98;1916543;73;28084;-47
2022/07/17 05:30:32;;;;;;;1.10;1.10;;;;;;;31.18;27.77;99536.09;1908189;74;28141;-47
2022/07/17 05:33:20;;;;;;;1.47;1.37;;;;;;;31.20;27.74;99538.59;1942266;73;28074;-51
2022/07/17 05:36:09;;;;;;;1.20;1.20;;;;;;;31.22;27.73;99539.97;1912623;73;28086;-51
2022/07/17 05:38:57;;;;;;;1.20;1.20;;;;;;;31.23;27.71;99541.61;1908114;73;28212;-51
2022/07/17 05:41:45;;;;;;;1.30;1.20;;;;;;;31.19;27.72;99547.48;1905515;74;28222;-51
2022/07/17 05:44:34;;;;;;;1.00;1.00;;;;;;;31.18;27.76;99551.36;1908259;74;28071;-50
2022/07/17 05:47:22;;;;;;;1.12;1.10;;;;;;;31.19;27.80;99550.80;1936204;73;28062;-50
2022/07/17 05:50:11;;;;;;;1.20;1.20;;;;;;;31.20;27.75;99548.31;1919971;73;28168;-52
2022/07/17 05:52:59;;;;;;;1.37;1.20;;;;;;;31.19;27.75;99556.36;1907031;73;28075;-54
2022/07/17 05:55:48;;;;;;;1.40;1.30;;;;;;;31.23;27.71;99558.26;1908270;73;28072;-52
2022/07/17 05:58:36;;;;;;;1.80;1.27;;;;;;;31.21;27.67;99561.89;1911994;73;28590;-52
2022/07/17 06:01:25;;;;;;;1.47;1.42;;;;;;;31.17;27.59;99559.43;1921587;73;28314;-53
2022/07/17 06:04:13;;;;;;;1.75;1.37;;;;;;;30.99;27.55;99554.59;1924598;73;28175;-53
2022/07/17 06:07:02;;;;;;;1.60;1.50;;;;;;;30.86;27.65;99564.06;1908055;74;28054;-49
2022/07/17 06:09:50;;;;;;;2.85;1.32;;;;;;;30.79;27.72;99556.06;1910566;73;28102;-48
2022/07/17 06:12:39;;;;;;;1.47;1.40;;;;;;;30.70;27.84;99557.79;1923248;73;28175;-48
2022/07/17 06:15:27;;;;;;;1.32;1.32;;;;;;;30.63;27.82;99555.89;1908561;73;28131;-48
2022/07/17 06:18:16;;;;;;;1.67;1.57;;;;;;;30.56;27.70;99555.38;1908146;74;28182;-52
2022/07/17 06:21:04;;;;;;;1.75;1.42;;;;;;;30.50;27.87;99556.53;1907988;74;28466;-49
2022/07/17 06:23:53;;;;;;;1.40;1.40;;;;;;;30.46;27.96;99556.81;1908159;73;28158;-51
2022/07/17 06:26:41;;;;;;;1.50;1.40;;;;;;;30.40;28.03;99561.57;1924685;73;28226;-54
2022/07/17 06:29:30;;;;;;;1.60;1.35;;;;;;;30.36;28.06;99560.49;1908458;74;28104;-50
2022/07/17 06:32:18;;;;;;;1.30;1.30;;;;;;;30.33;28.08;99558.83;1908381;74;28135;-52
2022/07/17 06:35:08;;;;;;;1.32;1.30;;;;;;;30.31;28.08;99558.25;1938910;73;28143;-54
2022/07/17 06:37:56;;;;;;;1.50;1.40;;;;;;;30.34;27.98;99558.53;1918414;73;28188;-54
2022/07/17 06:40:45;;;;;;;1.42;1.42;;;;;;;30.33;27.94;99558.28;1917672;73;28189;-54
2022/07/17 06:43:33;;;;;;;1.27;1.27;;;;;;;30.32;27.93;99561.28;1908383;74;28205;-54
2022/07/17 06:46:21;;;;;;;1.70;1.60;;;;;;;30.32;27.93;99569.59;1920827;73;28145;-54
2022/07/17 06:49:10;;;;;;;1.40;1.40;;;;;;;30.28;28.03;99565.74;1912895;73;28077;-53
2022/07/17 06:51:58;;;;;;;2.83;1.37;;;;;;;30.26;28.15;99562.43;1907645;73;28049;-55
2022/07/17 06:54:47;;;;;;;1.60;1.50;;;;;;;30.24;28.15;99566.05;1918959;73;28170;-53
2022/07/17 06:57:35;;;;;;;1.63;1.53;;;;;;;30.23;28.25;99568.53;1903163;74;28167;-51
2022/07/17 07:00:24;;;;;;;3.25;1.67;;;;;;;30.22;28.23;99565.50;1893926;75;28152;-52
2022/07/17 07:03:12;;;;;;;1.70;1.50;;;;;;;30.22;28.16;99565.50;1896457;73;28141;-49
2022/07/17 07:06:00;;;;;;;1.47;1.40;;;;;;;30.20;28.04;99558.84;1895477;75;28272;-54
2022/07/17 07:08:49;;;;;;;1.60;1.50;;;;;;;30.17;28.03;99564.13;1896325;75;28152;-53
2022/07/17 07:11:37;;;;;;;1.30;1.30;;;;;;;30.18;27.99;99561.65;1896347;75;28622;-53
2022/07/17 07:14:25;;;;;;;1.32;1.30;;;;;;;30.18;27.77;99563.03;1913461;73;28150;-51
2022/07/17 07:17:14;;;;;;;1.82;1.40;;;;;;;30.20;27.62;99565.77;1911330;74;28141;-53
2022/07/17 07:20:06;;;;;;;1.40;1.40;;;;;;;30.21;27.43;99563.83;1896124;75;28157;-53
2022/07/17 07:22:55;;;;;;;1.87;1.70;;;;;;;30.19;27.51;99561.91;1904338;73;28052;-53
2022/07/17 07:25:44;;;;;;;1.37;1.37;;;;;;;30.19;27.40;99570.22;1892006;75;28120;-50
2022/07/17 07:28:33;;;;;;;1.35;1.35;;;;;;;30.19;27.33;99571.05;1893142;74;28267;-53
2022/07/17 07:31:21;;;;;;;1.60;1.50;;;;;;;30.19;27.38;99567.45;1897027;74;28016;-53
2022/07/17 07:34:09;;;;;;;1.40;1.30;;;;;;;30.18;27.33;99568.58;1903599;74;28106;-52
2022/07/17 07:36:57;;;;;;;1.20;1.20;;;;;;;30.22;27.26;99566.89;1909965;74;28620;-55
2022/07/17 07:39:46;;;;;;;1.32;1.32;;;;;;;30.24;27.35;99568.81;1898751;74;28013;-51
2022/07/17 07:42:35;;;;;;;1.23;1.23;;;;;;;30.25;27.35;99570.45;1918134;74;28118;-52
2022/07/17 07:45:23;;;;;;;1.57;1.47;;;;;;;30.25;27.33;99562.14;1892424;75;28173;-52
2022/07/17 07:48:12;;;;;;;1.50;1.40;;;;;;;30.28;27.33;99562.42;1908363;74;28204;-52
2022/07/17 07:51:00;;;;;;;1.50;1.40;;;;;;;30.26;27.42;99563.81;1914258;74;28182;-51
2022/07/17 07:53:49;;;;;;;1.60;1.50;;;;;;;30.28;27.39;99564.36;1896225;75;28120;-56
2022/07/17 07:56:37;;;;;;;1.72;1.62;;;;;;;30.31;27.52;99562.41;1912253;74;28075;-53
2022/07/17 07:59:25;;;;;;;1.60;1.50;;;;;;;30.33;27.62;99562.44;1902105;74;28143;-55
2022/07/17 08:02:13;;;;;;;1.25;1.25;;;;;;;30.33;27.61;99556.05;1903389;74;28053;-54
2022/07/17 08:05:03;;;;;;;1.45;1.45;;;;;;;30.34;27.62;99556.34;1903091;74;28193;-56
2022/07/17 08:07:51;;;;;;;1.35;1.35;;;;;;;30.34;27.61;99549.41;1907305;74;28162;-55
2022/07/17 08:10:39;;;;;;;1.60;1.50;;;;;;;30.38;27.61;99560.20;1929221;74;28033;-55
2022/07/17 08:13:28;;;;;;;1.75;1.45;;;;;;;30.40;27.66;99557.41;1897667;74;28081;-53
2022/07/17 08:16:17;;;;;;;1.45;1.40;;;;;;;30.37;27.62;99554.36;1919479;73;28153;-54
2022/07/17 08:19:06;;;;;;;1.53;1.43;;;;;;;30.42;27.57;99557.12;1893261;75;28167;-53
2022/07/17 08:21:54;;;;;;;1.60;1.50;;;;;;;30.44;27.52;99557.66;1892324;75;28089;-54
2022/07/17 08:24:42;;;;;;;1.52;1.45;;;;;;;30.47;27.51;99551.55;1897944;74;28147;-55
2022/07/17 08:27:36;;;;;;;1.27;1.27;;;;;;;30.50;27.54;99553.77;1929172;74;28032;-56
2022/07/17 08:30:25;;;;;;;1.32;1.22;;;;;;;30.42;27.44;99550.19;1932394;74;28126;-55
2022/07/17 08:33:15;;;;;;;1.42;1.42;;;;;;;30.45;27.38;99553.78;1899359;74;28072;-54
2022/07/17 08:36:04;;;;;;;1.27;1.27;;;;;;;30.52;27.37;99552.91;1898560;74;28068;-52
2022/07/17 08:38:52;;;;;;;1.27;1.27;;;;;;;30.54;27.46;99551.52;1894338;75;28101;-54
2022/07/17 08:41:41;;;;;;;1.93;1.30;;;;;;;30.59;27.45;99549.27;1895379;75;28156;-55
2022/07/17 08:44:30;;;;;;;1.52;1.42;;;;;;;30.55;27.39;99552.35;1932446;74;28085;-54
2022/07/17 08:47:18;;;;;;;1.50;1.25;;;;;;;30.58;27.36;99557.30;1920336;74;28168;-54
2022/07/17 08:50:12;;;;;;;1.42;1.42;;;;;;;30.59;27.23;99551.49;1892350;75;28208;-51
2022/07/17 08:53:02;;;;;;;1.45;1.40;;;;;;;30.60;27.13;99546.20;1894081;73;28070;-54
2022/07/17 08:55:51;;;;;;;1.30;1.30;;;;;;;30.67;27.02;99559.74;1916582;74;28028;-52
2022/07/17 08:58:40;;;;;;;1.50;1.40;;;;;;;30.69;26.92;99555.56;1894031;74;28199;-54
2022/07/17 09:01:28;;;;;;;1.30;1.30;;;;;;;30.72;27.04;99564.71;1894544;75;28664;-55
2022/07/17 09:04:18;;;;;;;1.75;1.42;;;;;;;30.71;27.19;99569.17;1910412;74;28196;-52
2022/07/17 09:07:07;;;;;;;1.30;1.30;;;;;;;30.65;27.31;99560.04;1903356;74;28091;-51
2022/07/17 09:09:56;;;;;;;1.60;1.50;;;;;;;30.63;27.28;99558.66;1900250;74;28098;-54
2022/07/17 09:12:44;;;;;;;1.47;1.37;;;;;;;30.70;27.30;99553.63;1894760;75;31170;-53
2022/07/17 09:15:34;;;;;;;1.30;1.30;;;;;;;30.61;27.28;99549.81;1906007;74;28081;-52
2022/07/17 09:18:23;;;;;;;5.20;1.55;;;;;;;30.70;27.25;99559.17;1897437;74;28106;-52
2022/07/17 09:21:21;;;;;;;1.37;1.30;;;;;;;30.78;27.25;99555.81;1897932;75;28563;-52
2022/07/17 09:24:09;;;;;;;1.50;1.40;;;;;;;30.73;27.23;99554.45;1896040;75;28056;-53
2022/07/17 09:26:57;;;;;;;1.70;1.30;;;;;;;30.74;27.29;99554.16;1906694;74;28077;-54
2022/07/17 09:29:58;;;;;;;1.25;1.25;;;;;;;30.75;27.27;99553.05;1899303;74;28156;-50
2022/07/17 09:32:46;;;;;;;1.40;1.30;;;;;;;30.80;27.29;99555.52;1893512;75;28096;-51
2022/07/17 09:35:34;;;;;;;1.57;1.47;;;;;;;30.68;27.41;99555.31;1894600;75;28213;-51
2022/07/17 09:38:35;;;;;;;1.30;1.30;;;;;;;30.67;27.60;99551.42;1908708;74;28080;-57
2022/07/17 09:41:25;;;;;;;1.40;1.40;;;;;;;30.65;27.66;99545.34;1894398;75;28072;-53
2022/07/17 09:44:13;;;;;;;1.47;1.40;;;;;;;30.65;27.81;99543.95;1921580;74;28021;-52
2022/07/17 09:47:05;;;;;;;1.52;1.30;;;;;;;30.76;27.70;99546.92;1903442;74;28157;-53
2022/07/17 09:49:57;;;;;;;1.50;1.40;;;;;;;30.76;27.80;99541.38;1895369;75;28031;-56
2022/07/17 09:52:48;;;;;;;3.10;1.72;;;;;;;30.80;27.74;99543.03;1892386;75;28128;-55
2022/07/17 09:55:40;;;;;;;1.60;1.50;;;;;;;30.87;27.52;99548.53;1894623;73;28043;-54
2022/07/17 09:58:30;;;;;;;1.52;1.42;;;;;;;30.89;27.42;99552.42;1893961;74;28228;-55
2022/07/17 10:01:20;;;;;;;1.70;1.60;;;;;;;30.89;27.52;99552.42;1907605;74;28630;-53
2022/07/17 10:04:10;;;;;;;1.50;1.40;;;;;;;30.75;28.27;99550.83;1928713;74;28040;-54
2022/07/17 10:06:59;;;;;;;1.67;1.60;;;;;;;30.85;27.70;99540.23;1896743;74;28074;-53
2022/07/17 10:09:48;;;;;;;1.70;1.55;;;;;;;30.87;27.58;99545.76;1894281;75;28133;-54
2022/07/17 10:12:38;;;;;;;2.00;1.60;;;;;;;30.85;27.73;99546.61;1895357;75;28070;-52
2022/07/17 10:15:28;;;;;;;1.70;1.50;;;;;;;30.85;27.79;99548.00;1900162;74;28039;-53
2022/07/17 10:18:16;;;;;;;2.20;1.67;;;;;;;30.88;27.58;99536.33;1897184;74;28164;-58
2022/07/17 10:23:58;;;;;;;1.82;1.60;;;;;;;30.95;27.51;99543.77;1925367;72;28152;-58
2022/07/17 10:26:49;;;;;;;2.10;1.67;;;;;;;30.86;27.53;99534.38;1901632;75;28064;-59
2022/07/17 10:29:40;;;;;;;1.77;1.67;;;;;;;30.88;27.25;99539.11;1901879;75;28135;-60
2022/07/17 10:32:29;;;;;;;1.80;1.50;;;;;;;30.85;27.19;99537.45;1901783;75;28124;-60
2022/07/17 10:35:18;;;;;;;1.90;1.80;;;;;;;30.92;26.96;99537.99;1901806;75;28216;-60
2022/07/17 10:38:15;;;;;;;1.82;1.72;;;;;;;30.86;26.99;99532.99;1901694;75;28149;-59
2022/07/17 10:41:04;;;;;;;1.60;1.50;;;;;;;30.79;27.11;99532.48;1908728;73;28096;-60
2022/07/17 10:43:52;;;;;;;1.80;1.70;;;;;;;30.72;27.15;99531.98;1911821;73;31603;-61
2022/07/17 10:46:41;;;;;;;1.72;1.62;;;;;;;30.67;27.24;99527.30;1901826;75;28142;-62
2022/07/17 10:49:29;;;;;;;2.77;1.70;;;;;;;30.72;27.17;99531.43;1901725;75;28195;-60
2022/07/17 10:52:17;;;;;;;1.60;1.60;;;;;;;30.65;27.08;99526.77;1901664;75;28282;-60
2022/07/17 10:55:07;;;;;;;1.82;1.72;;;;;;;30.73;26.99;99529.49;1914793;73;28049;-59
2022/07/17 10:57:56;;;;;;;1.60;1.50;;;;;;;30.76;27.01;99520.02;1909991;73;28059;-59
2022/07/17 11:00:47;;;;;;;2.08;1.70;;;;;;;30.88;26.96;99518.86;1916682;73;28020;-61
2022/07/17 11:03:47;;;;;;;1.70;1.60;;;;;;;30.89;26.95;99523.30;1905037;73;28232;-58
2022/07/17 11:06:37;;;;;;;1.40;1.40;;;;;;;30.89;26.88;99517.75;1915185;73;28068;-60
2022/07/17 11:09:26;;;;;;;1.50;1.50;;;;;;;30.98;26.88;99504.36;1917569;73;28095;-59
2022/07/17 11:12:16;;;;;;;1.70;1.60;;;;;;;30.94;27.00;99498.30;1906222;73;28114;-61
2022/07/17 11:15:06;;;;;;;1.82;1.72;;;;;;;30.94;27.10;99495.52;1906815;73;28101;-60
2022/07/17 11:17:54;;;;;;;2.45;1.67;;;;;;;31.06;27.11;99491.82;1903052;73;28121;-59
2022/07/17 11:20:55;;;;;;;1.65;1.55;;;;;;;31.18;27.06;99490.88;1901814;75;28127;-59
2022/07/17 11:23:55;;;;;;;2.30;1.70;;;;;;;31.06;27.30;99483.50;1905435;74;28084;-62
2022/07/17 11:26:45;;;;;;;1.60;1.50;;;;;;;31.00;27.43;99484.09;1902447;74;28149;-60
2022/07/17 11:29:41;;;;;;;1.60;1.50;;;;;;;30.93;27.71;99486.92;1906818;73;28131;-61
2022/07/17 11:32:37;;;;;;;1.70;1.60;;;;;;;31.00;27.82;99486.86;1907064;74;28154;-61
2022/07/17 11:35:26;;;;;;;1.70;1.60;;;;;;;31.09;27.80;99485.66;1893067;74;28251;-62
2022/07/17 11:38:14;;;;;;;1.40;1.40;;;;;;;31.14;27.56;99479.52;1908899;73;28249;-60
2022/07/17 11:41:03;;;;;;;1.57;1.47;;;;;;;31.18;27.57;99481.17;1906987;74;28090;-60
2022/07/17 11:43:51;;;;;;;1.40;1.30;;;;;;;31.13;27.81;99478.44;1900395;74;28293;-61
2022/07/17 11:46:42;;;;;;;1.62;1.60;;;;;;;31.17;27.75;99469.79;1888604;75;28172;-60
2022/07/17 11:49:34;;;;;;;1.75;1.60;;;;;;;31.20;27.63;99475.56;1888900;75;28161;-60
2022/07/17 11:52:22;;;;;;;1.40;1.40;;;;;;;31.26;27.57;99471.64;1888794;75;28161;-63
2022/07/17 11:55:12;;;;;;;1.75;1.65;;;;;;;31.34;27.50;99465.44;1891882;73;28183;-61
2022/07/17 11:58:01;;;;;;;1.77;1.67;;;;;;;31.26;27.38;99466.09;1904561;73;28030;-59
2022/07/17 12:00:49;;;;;;;1.52;1.50;;;;;;;31.30;27.56;99457.98;1901119;75;28278;-59
2022/07/17 12:03:38;;;;;;;1.40;1.40;;;;;;;31.44;27.67;99458.98;1888783;75;28202;-56
2022/07/17 12:06:27;;;;;;;1.50;1.50;;;;;;;31.52;27.78;99450.58;1898258;74;28219;-52
2022/07/17 12:09:17;;;;;;;2.37;1.57;;;;;;;31.59;28.19;99453.27;1895606;74;28140;-49
2022/07/17 12:12:06;;;;;;;1.50;1.50;;;;;;;31.65;28.32;99447.91;1901259;74;28205;-51
2022/07/17 12:14:57;;;;;;;1.70;1.60;;;;;;;31.65;28.52;99449.30;1893262;74;28115;-53
2022/07/17 12:17:46;;;;;;;1.70;1.50;;;;;;;31.68;29.07;99448.72;1901036;75;28191;-54
2022/07/17 12:20:43;;;;;;;1.60;1.50;;;;;;;31.73;28.80;99457.55;1901022;75;28039;-53
2022/07/17 12:23:35;;;;;;;1.67;1.57;;;;;;;31.75;28.88;99437.24;1910039;73;28167;-55
2022/07/17 12:26:23;;;;;;;1.40;1.40;;;;;;;31.74;29.01;99456.44;1916746;73;28419;-54
2022/07/17 12:29:11;;;;;;;1.55;1.55;;;;;;;31.72;28.94;99447.55;1910607;74;28238;-54
2022/07/17 12:32:14;;;;;;;1.50;1.50;;;;;;;31.64;28.80;99462.11;1925662;73;28133;-51
2022/07/17 12:35:03;;;;;;;1.60;1.50;;;;;;;31.61;28.41;99433.52;1910751;74;28105;-52
2022/07/17 12:37:51;;;;;;;1.52;1.42;;;;;;;31.60;28.37;99443.80;1910526;74;28043;-56
2022/07/17 12:40:40;;;;;;;1.47;1.47;;;;;;;31.63;28.37;99445.99;1912907;73;28110;-52
2022/07/17 12:43:28;;;;;;;1.20;1.20;;;;;;;31.64;28.43;99445.44;1918502;73;28388;-56
2022/07/17 12:46:17;;;;;;;1.43;1.40;;;;;;;31.71;28.31;99432.86;1910654;74;28153;-55
2022/07/17 12:49:06;;;;;;;1.40;1.40;;;;;;;31.83;28.52;99457.44;1910780;74;28111;-54
2022/07/17 12:51:55;;;;;;;1.50;1.40;;;;;;;31.85;28.32;99434.34;1906216;73;28142;-54
2022/07/17 12:54:43;;;;;;;1.70;1.60;;;;;;;31.85;28.18;99437.13;1911911;73;28143;-54
2022/07/17 12:57:32;;;;;;;1.50;1.40;;;;;;;31.87;28.07;99423.76;1910431;73;28153;-56
2022/07/17 13:00:20;;;;;;;1.42;1.42;;;;;;;31.89;27.94;99421.50;1931677;73;28098;-52
2022/07/17 13:03:09;;;;;;;1.37;1.37;;;;;;;31.92;27.76;99438.42;1923382;73;28075;-53
2022/07/17 13:05:57;;;;;;;1.57;1.47;;;;;;;31.92;27.88;99438.98;1923060;73;28010;-54
2022/07/17 13:08:45;;;;;;;1.60;1.50;;;;;;;31.92;27.90;99434.25;1910626;74;28150;-47
2022/07/17 13:11:34;;;;;;;1.40;1.40;;;;;;;31.94;27.99;99413.94;1924092;73;28238;-55
2022/07/17 13:14:22;;;;;;;1.50;1.40;;;;;;;31.97;27.97;99434.19;1911472;73;28163;-52
2022/07/17 13:17:11;;;;;;;1.43;1.43;;;;;;;32.04;27.87;99420.76;1910287;73;28140;-54
2022/07/17 13:19:59;;;;;;;1.40;1.40;;;;;;;32.05;27.88;99420.20;1933037;73;28553;-52